Time;durP1;ratioP1;P1;durP2;ratioP2;P2;SDS_P1;SDS_P2;PMS_P1;PMS_P2;Temp;Humidity;BMP_temperature;BMP_pressure;BME280_temperature;BME280_humidity;BME280_pressure;Samples;Min_cycle;Max_cycle;Signal;HPM_P1;HPM_P2
2022/11/16 00:00:23;;;;;;;33.63;21.77;;;11.20;84.30;;;;;;5075705;28;20040;-17
2022/11/16 00:02:50;;;;;;;33.72;20.85;;;11.20;84.40;;;;;;5075509;28;20075;-17
2022/11/16 00:05:18;;;;;;;34.78;23.02;;;11.20;84.30;;;;;;5075605;28;20392;-16
2022/11/16 00:07:44;;;;;;;33.50;21.65;;;11.20;84.20;;;;;;5075973;28;20036;-14
2022/11/16 00:10:11;;;;;;;34.65;21.60;;;11.20;84.30;;;;;;5075662;28;20062;-15
2022/11/16 00:12:37;;;;;;;32.08;20.48;;;11.20;84.30;;;;;;5075877;28;20024;-16
2022/11/16 00:15:04;;;;;;;32.30;21.52;;;11.10;84.20;;;;;;5075596;28;20032;-16
2022/11/16 00:17:30;;;;;;;33.55;19.40;;;11.10;84.30;;;;;;5075426;28;20031;-16
2022/11/16 00:19:56;;;;;;;30.17;18.48;;;11.10;84.30;;;;;;5075205;28;20049;-17
2022/11/16 00:22:21;;;;;;;32.25;20.45;;;11.10;84.30;;;;;;5075698;28;20020;-15
2022/11/16 00:24:47;;;;;;;34.38;22.50;;;11.10;84.40;;;;;;5075518;28;20090;-17
2022/11/16 00:27:13;;;;;;;30.67;20.65;;;11.10;84.40;;;;;;5075301;28;20385;-17
2022/11/16 00:29:39;;;;;;;29.70;18.88;;;11.00;84.30;;;;;;5075190;28;20056;-16
2022/11/16 00:32:05;;;;;;;25.92;18.15;;;10.90;84.40;;;;;;5075525;28;20063;-15
2022/11/16 00:34:31;;;;;;;39.10;23.70;;;10.90;84.50;;;;;;5075389;28;20467;-14
2022/11/16 00:36:56;;;;;;;35.92;20.67;;;10.90;84.70;;;;;;5075218;28;20128;-14
2022/11/16 00:39:22;;;;;;;31.75;20.63;;;10.90;84.70;;;;;;5075312;28;20029;-16
2022/11/16 00:41:48;;;;;;;29.65;18.17;;;10.90;84.70;;;;;;5075526;28;20072;-15
2022/11/16 00:44:14;;;;;;;24.92;16.52;;;10.90;84.70;;;;;;5074981;28;20431;-15
2022/11/16 00:46:40;;;;;;;27.02;17.15;;;10.90;84.80;;;;;;5075191;28;20494;-16
2022/11/16 00:49:07;;;;;;;35.70;21.80;;;10.90;84.90;;;;;;5074671;28;20529;-17
2022/11/16 00:51:34;;;;;;;35.20;22.38;;;10.90;84.90;;;;;;5073529;28;20400;-17
2022/11/16 00:54:01;;;;;;;33.33;21.05;;;10.90;84.90;;;;;;5074826;28;20017;-16
2022/11/16 00:56:27;;;;;;;34.42;21.85;;;10.90;84.90;;;;;;5074818;28;20551;-13
2022/11/16 00:58:53;;;;;;;28.80;18.77;;;10.90;84.90;;;;;;5074429;28;20059;-14
2022/11/16 01:01:18;;;;;;;24.98;17.40;;;10.90;84.90;;;;;;5074563;28;20063;-14
2022/11/16 01:03:44;;;;;;;28.60;18.58;;;10.90;84.90;;;;;;5074542;28;20029;-14
2022/11/16 01:06:13;;;;;;;27.55;18.67;;;10.90;85.00;;;;;;5074407;28;20020;-14
2022/11/16 01:08:40;;;;;;;36.53;22.00;;;10.90;85.00;;;;;;5075065;28;20024;-15
2022/11/16 01:13:52;;;;;;;29.83;17.90;;;10.90;84.90;;;;;;5074900;28;20116;-17
2022/11/16 01:16:20;;;;;;;25.58;17.17;;;10.90;84.90;;;;;;5074318;28;20565;-14
2022/11/16 01:18:53;;;;;;;24.13;17.08;;;10.90;84.90;;;;;;5074163;28;20021;-15
2022/11/16 01:21:20;;;;;;;37.45;21.35;;;10.90;84.90;;;;;;5073051;28;20029;-14
2022/11/16 01:23:46;;;;;;;27.08;17.08;;;10.90;85.00;;;;;;5074150;28;20548;-15
2022/11/16 01:26:12;;;;;;;35.17;20.27;;;10.90;85.00;;;;;;5074215;28;20127;-13
2022/11/16 01:28:38;;;;;;;30.60;18.63;;;10.90;85.10;;;;;;5074371;28;20052;-15
2022/11/16 01:31:04;;;;;;;24.52;15.68;;;10.90;85.10;;;;;;5072625;28;20471;-13
2022/11/16 01:33:30;;;;;;;34.72;22.48;;;10.90;85.10;;;;;;5073916;28;20028;-14
2022/11/16 01:35:56;;;;;;;24.15;16.35;;;10.90;85.10;;;;;;5073851;28;20028;-12
2022/11/16 01:38:21;;;;;;;31.10;19.50;;;10.90;85.20;;;;;;5074120;28;20024;-14
2022/11/16 01:40:47;;;;;;;37.35;21.70;;;10.90;85.30;;;;;;5073581;28;20036;-18
2022/11/16 01:43:19;;;;;;;32.55;18.73;;;10.90;85.60;;;;;;5074147;28;20024;-15
2022/11/16 01:45:45;;;;;;;29.83;17.80;;;10.90;85.50;;;;;;5074070;28;20052;-15
2022/11/16 01:48:18;;;;;;;29.20;17.92;;;10.90;85.50;;;;;;5074018;28;20031;-15
2022/11/16 01:50:46;;;;;;;36.87;20.77;;;10.90;85.40;;;;;;5073925;28;20496;-16
2022/11/16 01:53:12;;;;;;;27.23;17.77;;;10.90;85.90;;;;;;5073871;28;20031;-15
2022/11/16 01:55:41;;;;;;;29.70;18.80;;;10.90;85.70;;;;;;5074008;28;20064;-16
2022/11/16 01:58:11;;;;;;;34.53;20.38;;;10.90;85.80;;;;;;5073883;28;20054;-16
2022/11/16 02:00:37;;;;;;;39.42;23.10;;;10.90;86.00;;;;;;5073502;28;20029;-14
2022/11/16 02:03:03;;;;;;;33.05;19.15;;;10.90;85.90;;;;;;5071974;28;20078;-17
2022/11/16 02:06:02;;;;;;;31.23;18.83;;;10.90;85.90;;;;;;5073361;28;20028;-17
2022/11/16 02:11:55;;;;;;;33.67;19.30;;;10.90;85.70;;;;;;5073754;28;20392;-17
2022/11/16 02:14:58;;;;;;;31.13;18.45;;;10.90;85.70;;;;;;5067553;28;20438;-13
2022/11/16 02:17:23;;;;;;;31.40;17.58;;;11.00;85.60;;;;;;5073379;28;20044;-16
2022/11/16 02:20:13;;;;;;;30.45;18.08;;;11.00;85.60;;;;;;5072973;28;20049;-16
2022/11/16 02:22:51;;;;;;;27.92;16.63;;;11.00;85.50;;;;;;5073590;28;20024;-17
2022/11/16 02:26:01;;;;;;;31.40;17.63;;;11.10;85.40;;;;;;5073175;28;20071;-17
2022/11/16 02:28:27;;;;;;;39.35;22.48;;;11.00;85.30;;;;;;5031212;28;20052;-15
2022/11/16 02:30:57;;;;;;;28.48;17.52;;;11.00;85.40;;;;;;5030961;28;20397;-16
2022/11/16 02:33:32;;;;;;;26.63;16.48;;;11.00;85.30;;;;;;5031176;28;20026;-15
2022/11/16 02:36:01;;;;;;;34.95;19.73;;;11.00;85.40;;;;;;5031060;28;20063;-15
2022/11/16 02:38:31;;;;;;;37.60;21.52;;;11.10;85.50;;;;;;5031036;28;20099;-15
2022/11/16 02:41:03;;;;;;;32.00;18.38;;;11.10;85.50;;;;;;5030797;28;20551;-14
2022/11/16 02:43:42;;;;;;;28.23;17.30;;;11.10;85.40;;;;;;5031346;28;20057;-15
2022/11/16 02:46:15;;;;;;;33.67;19.10;;;11.10;85.50;;;;;;5031869;28;20248;-15
2022/11/16 02:48:46;;;;;;;26.83;16.65;;;11.10;85.50;;;;;;5031000;28;20036;-16
2022/11/16 02:51:14;;;;;;;32.47;18.27;;;11.10;85.50;;;;;;5030843;28;20033;-14
2022/11/16 02:54:03;;;;;;;24.10;15.50;;;11.10;85.50;;;;;;5031823;28;20033;-13
2022/11/16 02:56:40;;;;;;;27.85;16.40;;;11.10;85.50;;;;;;5030868;28;20030;-15
2022/11/16 02:59:08;;;;;;;27.63;15.77;;;11.20;85.50;;;;;;5030587;28;20033;-15
2022/11/16 03:01:40;;;;;;;32.15;18.17;;;11.20;85.40;;;;;;5030831;28;20088;-15
2022/11/16 03:04:33;;;;;;;29.95;16.73;;;11.20;85.50;;;;;;5053509;28;20037;-15
2022/11/16 03:07:04;;;;;;;25.77;15.80;;;11.20;85.40;;;;;;5053697;28;20028;-17
2022/11/16 03:09:34;;;;;;;26.98;16.02;;;11.20;85.40;;;;;;5073222;28;20766;-14
2022/11/16 03:12:04;;;;;;;33.90;19.20;;;11.20;85.40;;;;;;5072644;28;20119;-14
2022/11/16 03:14:45;;;;;;;29.35;16.67;;;11.20;85.40;;;;;;5073002;28;20025;-17
2022/11/16 03:17:20;;;;;;;27.63;16.00;;;11.20;85.40;;;;;;5072548;28;20456;-15
2022/11/16 03:20:10;;;;;;;26.08;15.70;;;11.20;85.30;;;;;;5072284;28;20057;-15
2022/11/16 03:22:51;;;;;;;25.63;15.40;;;11.20;85.30;;;;;;5069664;28;20036;-15
2022/11/16 03:25:20;;;;;;;25.27;15.02;;;11.20;85.30;;;;;;5076790;28;20383;-16
2022/11/16 03:27:51;;;;;;;24.00;14.82;;;11.20;85.40;;;;;;5076947;28;20426;-14
2022/11/16 03:30:23;;;;;;;25.30;14.75;;;11.20;85.40;;;;;;5076419;28;20028;-13
2022/11/16 03:33:17;;;;;;;23.60;13.82;;;11.20;85.40;;;;;;5076169;28;20024;-17
2022/11/16 03:36:24;;;;;;;24.77;14.15;;;11.20;85.30;;;;;;5075005;28;20086;-15
2022/11/16 03:38:51;;;;;;;35.15;19.35;;;11.30;85.30;;;;;;5034107;28;20044;-16
2022/11/16 03:41:21;;;;;;;24.40;14.95;;;11.30;85.30;;;;;;5034199;28;20072;-14
2022/11/16 03:43:48;;;;;;;26.92;15.05;;;11.20;85.20;;;;;;5034191;28;20104;-14
2022/11/16 03:46:16;;;;;;;23.98;14.40;;;11.20;85.30;;;;;;5034284;28;20068;-14
2022/11/16 03:48:42;;;;;;;29.88;17.83;;;11.20;85.30;;;;;;5034199;28;20033;-14
2022/11/16 03:51:10;;;;;;;22.10;12.60;;;11.20;85.40;;;;;;5033679;28;20033;-15
2022/11/16 03:53:36;;;;;;;26.45;15.23;;;11.20;85.40;;;;;;5034041;28;20030;-16
2022/11/16 03:56:02;;;;;;;22.00;12.35;;;11.20;85.40;;;;;;5034156;28;20060;-16
2022/11/16 03:58:28;;;;;;;24.05;13.50;;;11.20;85.40;;;;;;5034337;28;20063;-15
2022/11/16 04:00:54;;;;;;;23.85;14.07;;;11.20;85.40;;;;;;5033666;28;20037;-14
2022/11/16 04:03:20;;;;;;;27.50;15.48;;;11.20;85.40;;;;;;5034442;28;20048;-16
2022/11/16 04:25:48;;;;;;;31.45;17.15;;;11.10;85.50;;;;;;5054055;28;20083;-15
2022/11/16 04:28:15;;;;;;;23.30;13.50;;;11.00;85.50;;;;;;5070049;28;20055;-14
2022/11/16 04:38:59;;;;;;;24.15;13.63;;;11.00;85.60;;;;;;5075429;28;20059;-15
2022/11/16 04:44:10;;;;;;;29.80;15.82;;;11.00;85.70;;;;;;5075461;28;20099;-15
2022/11/16 04:49:20;;;;;;;27.95;15.80;;;11.00;85.70;;;;;;5074994;28;20498;-14
2022/11/16 04:51:46;;;;;;;24.98;13.50;;;10.90;85.70;;;;;;5075095;28;20024;-15
2022/11/16 04:54:12;;;;;;;29.85;15.88;;;10.90;85.60;;;;;;5075055;28;20494;-14
2022/11/16 04:56:38;;;;;;;30.20;15.30;;;10.90;85.70;;;;;;5073969;28;20111;-14
2022/11/16 04:59:04;;;;;;;27.83;15.85;;;10.90;85.80;;;;;;5074916;28;20415;-14
2022/11/16 05:04:14;;;;;;;30.67;16.27;;;10.80;86.60;;;;;;5075113;28;20036;-15
2022/11/16 05:06:40;;;;;;;29.80;15.25;;;10.80;86.90;;;;;;5074811;28;20025;-14
2022/11/16 05:09:06;;;;;;;26.10;14.15;;;10.80;86.80;;;;;;5074392;28;20027;-14
2022/11/16 05:11:32;;;;;;;24.08;12.75;;;10.80;86.80;;;;;;5074402;28;20484;-13
2022/11/16 05:13:58;;;;;;;30.80;17.10;;;10.80;86.80;;;;;;5074668;28;20065;-16
2022/11/16 05:16:24;;;;;;;25.75;13.80;;;10.80;86.70;;;;;;5074367;28;20027;-15
2022/11/16 05:20:59;;;;;;;26.42;14.35;;;10.80;86.70;;;;;;5073715;28;20028;-16
2022/11/16 05:21:36;;;;;;;33.67;17.02;;;10.80;86.80;;;;;;5074164;28;20036;-14
2022/11/16 05:26:46;;;;;;;25.23;13.35;;;10.80;86.60;;;;;;5074558;28;20034;-17
2022/11/16 05:29:12;;;;;;;27.10;14.85;;;10.80;86.40;;;;;;5074313;28;20020;-14
2022/11/16 05:31:38;;;;;;;25.55;13.23;;;10.80;86.30;;;;;;5074078;28;20029;-14
2022/11/16 05:34:04;;;;;;;20.00;11.73;;;10.80;86.30;;;;;;5074916;28;20017;-14
2022/11/16 05:36:30;;;;;;;24.73;13.15;;;10.80;86.40;;;;;;5073881;28;20116;-14
2022/11/16 05:38:56;;;;;;;27.80;14.57;;;10.80;86.40;;;;;;5073689;28;20025;-13
2022/11/16 05:41:22;;;;;;;29.77;15.75;;;10.80;86.40;;;;;;5072653;28;20067;-14
2022/11/16 05:43:48;;;;;;;30.08;16.23;;;10.80;86.30;;;;;;5073141;28;20217;-14
2022/11/16 05:46:13;;;;;;;23.33;12.98;;;10.80;86.40;;;;;;5073719;28;20028;-14
2022/11/16 05:48:39;;;;;;;26.40;15.52;;;10.80;86.30;;;;;;5073701;28;20028;-14
2022/11/16 05:51:05;;;;;;;20.75;12.15;;;10.80;86.40;;;;;;5073304;28;20063;-16
2022/11/16 05:53:31;;;;;;;23.13;12.52;;;10.80;86.40;;;;;;5074157;28;20037;-14
2022/11/16 05:55:57;;;;;;;26.38;15.07;;;10.80;86.40;;;;;;5073629;28;20544;-14
2022/11/16 05:58:23;;;;;;;23.50;12.65;;;10.80;86.40;;;;;;5073482;28;20033;-14
2022/11/16 06:00:50;;;;;;;26.65;14.25;;;10.80;86.50;;;;;;5073267;28;20157;-15
2022/11/16 06:03:16;;;;;;;26.05;14.07;;;10.80;86.50;;;;;;5073527;28;20107;-14
2022/11/16 06:05:41;;;;;;;23.13;13.25;;;10.80;86.40;;;;;;5073337;28;20162;-14
2022/11/16 06:08:08;;;;;;;23.45;13.35;;;10.80;86.40;;;;;;5073776;28;20036;-14
2022/11/16 06:10:33;;;;;;;27.23;15.32;;;10.80;86.40;;;;;;5073349;28;20135;-13
2022/11/16 06:12:59;;;;;;;24.08;13.40;;;10.80;86.30;;;;;;5072006;28;20103;-14
2022/11/16 06:15:25;;;;;;;31.30;16.90;;;10.80;86.30;;;;;;5073651;28;20059;-14
2022/11/16 06:17:51;;;;;;;20.50;11.40;;;10.80;86.30;;;;;;5073294;28;20111;-14
2022/11/16 06:20:17;;;;;;;23.83;12.75;;;10.80;86.30;;;;;;5072815;28;20044;-13
2022/11/16 06:22:43;;;;;;;22.20;12.43;;;10.80;86.40;;;;;;5073374;28;20032;-14
2022/11/16 06:25:09;;;;;;;24.85;13.68;;;10.70;86.40;;;;;;5072983;28;20032;-16
2022/11/16 06:27:38;;;;;;;22.88;13.50;;;10.80;86.50;;;;;;5073232;28;20066;-16
2022/11/16 06:30:06;;;;;;;18.75;11.20;;;10.80;86.60;;;;;;5073185;28;20027;-14
2022/11/16 06:32:32;;;;;;;20.02;11.88;;;10.80;86.70;;;;;;5073092;28;20025;-13
2022/11/16 06:34:58;;;;;;;21.95;13.27;;;10.70;86.80;;;;;;5072818;28;20032;-16
2022/11/16 06:37:24;;;;;;;26.83;14.48;;;10.80;86.80;;;;;;5073016;28;20071;-14
2022/11/16 06:39:50;;;;;;;19.00;11.30;;;10.80;86.70;;;;;;5071744;28;20078;-16
2022/11/16 06:42:16;;;;;;;20.83;11.07;;;10.80;86.70;;;;;;5072989;28;20028;-14
2022/11/16 06:44:42;;;;;;;26.23;13.68;;;10.80;86.60;;;;;;5073329;28;20082;-13
2022/11/16 06:47:07;;;;;;;26.90;14.48;;;10.80;86.60;;;;;;5072758;28;20029;-15
2022/11/16 06:49:33;;;;;;;21.55;12.82;;;10.80;86.50;;;;;;5073340;28;20071;-16
2022/11/16 06:51:59;;;;;;;29.85;16.02;;;10.80;86.50;;;;;;5072930;28;20379;-15
2022/11/16 06:54:25;;;;;;;26.15;14.30;;;10.80;86.50;;;;;;5072837;28;20436;-14
2022/11/16 06:56:51;;;;;;;31.40;16.20;;;10.80;86.40;;;;;;5076627;28;20028;-16
2022/11/16 06:59:17;;;;;;;33.13;19.33;;;10.80;86.40;;;;;;5077249;28;20128;-14
2022/11/16 07:01:43;;;;;;;28.52;17.00;;;10.80;86.40;;;;;;5076979;28;20503;-14
2022/11/16 07:04:10;;;;;;;24.52;14.25;;;10.70;86.40;;;;;;5077236;28;20120;-14
2022/11/16 07:06:39;;;;;;;25.08;14.35;;;10.70;86.50;;;;;;5077102;28;20028;-14
2022/11/16 07:09:06;;;;;;;26.13;14.13;;;10.70;86.50;;;;;;5076631;28;20551;-17
2022/11/16 07:11:36;;;;;;;26.02;14.07;;;10.70;86.50;;;;;;5076806;28;20032;-14
2022/11/16 07:14:03;;;;;;;27.90;14.70;;;10.70;86.50;;;;;;5077069;28;20115;-14
2022/11/16 07:16:29;;;;;;;27.38;15.27;;;10.70;86.50;;;;;;5076950;28;20448;-14
2022/11/16 07:18:57;;;;;;;27.33;14.98;;;10.70;86.60;;;;;;5076368;28;20135;-15
2022/11/16 07:21:24;;;;;;;28.35;15.05;;;10.70;86.70;;;;;;5076555;28;20036;-14
2022/11/16 07:23:50;;;;;;;25.17;13.80;;;10.70;86.60;;;;;;5076918;28;20024;-15
2022/11/16 07:26:17;;;;;;;26.38;13.57;;;10.70;86.60;;;;;;5076552;28;20024;-17
2022/11/16 07:28:42;;;;;;;24.42;13.50;;;10.70;86.60;;;;;;5076998;28;20486;-14
2022/11/16 07:31:10;;;;;;;26.90;14.70;;;10.80;86.60;;;;;;5076217;28;20033;-14
2022/11/16 07:33:37;;;;;;;24.27;13.20;;;10.80;86.60;;;;;;5076465;28;20491;-15
2022/11/16 07:36:13;;;;;;;26.75;14.77;;;10.80;86.60;;;;;;5076382;28;20543;-13
2022/11/16 07:38:40;;;;;;;26.65;14.80;;;10.80;86.70;;;;;;5076403;28;20056;-16
2022/11/16 07:41:14;;;;;;;28.85;15.60;;;10.80;86.70;;;;;;5075985;28;20074;-15
2022/11/16 07:43:40;;;;;;;28.35;15.73;;;10.80;86.70;;;;;;5076692;28;20033;-14
2022/11/16 07:46:18;;;;;;;27.67;15.30;;;10.90;86.60;;;;;;5076357;28;20082;-15
2022/11/16 07:48:45;;;;;;;26.98;15.77;;;10.90;86.60;;;;;;5076405;28;20032;-17
2022/11/16 07:51:14;;;;;;;28.70;14.85;;;10.80;86.60;;;;;;5075667;28;20021;-14
2022/11/16 07:53:44;;;;;;;27.80;15.57;;;10.80;86.60;;;;;;5075970;28;20123;-15
2022/11/16 07:56:11;;;;;;;32.53;16.25;;;10.80;86.70;;;;;;5076236;28;20025;-14
2022/11/16 07:58:38;;;;;;;28.30;14.10;;;10.90;86.70;;;;;;5075931;28;20107;-15
2022/11/16 08:01:15;;;;;;;27.65;15.45;;;10.90;86.70;;;;;;5075658;28;20404;-14
2022/11/16 08:03:43;;;;;;;30.02;15.18;;;10.90;86.80;;;;;;5076036;28;20029;-14
2022/11/16 08:06:19;;;;;;;28.58;15.13;;;10.90;86.90;;;;;;5074549;28;20028;-15
2022/11/16 08:08:45;;;;;;;27.55;14.25;;;10.90;86.80;;;;;;5075959;28;20392;-15
2022/11/16 08:11:12;;;;;;;26.05;13.80;;;10.90;86.80;;;;;;5075564;28;20029;-15
2022/11/16 08:13:39;;;;;;;23.38;13.43;;;11.00;86.80;;;;;;5074866;28;20025;-14
2022/11/16 08:16:11;;;;;;;23.33;13.27;;;11.00;86.80;;;;;;5075883;28;20479;-14
2022/11/16 08:18:38;;;;;;;22.20;12.73;;;11.00;86.70;;;;;;5075488;28;20028;-14
2022/11/16 08:21:06;;;;;;;23.67;13.00;;;11.00;86.70;;;;;;5075296;28;20126;-14
2022/11/16 08:23:33;;;;;;;20.77;11.70;;;11.00;86.70;;;;;;5075443;28;20411;-16
2022/11/16 08:26:20;;;;;;;22.95;12.52;;;11.00;86.80;;;;;;5075407;28;20032;-14
2022/11/16 08:28:50;;;;;;;22.67;13.05;;;11.10;86.90;;;;;;5075577;28;20107;-24
2022/11/16 08:31:19;;;;;;;23.65;13.05;;;11.20;87.00;;;;;;5075578;28;20090;-14
2022/11/16 08:33:46;;;;;;;20.30;11.10;;;11.30;87.40;;;;;;5075248;28;20508;-14
2022/11/16 08:36:16;;;;;;;22.42;12.30;;;11.40;87.70;;;;;;5075419;28;20039;-14
2022/11/16 08:38:47;;;;;;;19.30;10.18;;;11.60;87.50;;;;;;5075316;28;20016;-14
2022/11/16 08:41:13;;;;;;;20.33;11.07;;;11.80;87.10;;;;;;5075460;28;20468;-14
2022/11/16 08:43:41;;;;;;;17.65;9.68;;;11.90;87.00;;;;;;5075100;28;20017;-14
2022/11/16 08:46:09;;;;;;;17.02;9.90;;;12.10;86.60;;;;;;5075020;28;20484;-14
2022/11/16 08:48:36;;;;;;;16.73;9.57;;;12.20;86.30;;;;;;5075061;28;20017;-14
2022/11/16 08:51:07;;;;;;;15.75;9.70;;;12.30;85.90;;;;;;5074575;28;20476;-14
2022/11/16 08:53:33;;;;;;;17.95;9.40;;;12.30;85.80;;;;;;5074861;28;20526;-16
2022/11/16 08:56:04;;;;;;;15.32;9.32;;;12.30;85.60;;;;;;5075107;28;20033;-14
2022/11/16 08:58:30;;;;;;;15.17;8.67;;;12.30;85.50;;;;;;5074708;28;20435;-14
2022/11/16 09:00:56;;;;;;;17.30;10.27;;;12.30;85.50;;;;;;5074912;28;20268;-14
2022/11/16 09:03:22;;;;;;;18.60;10.15;;;12.40;85.70;;;;;;5074697;28;20036;-14
2022/11/16 09:05:48;;;;;;;19.70;10.45;;;12.40;85.50;;;;;;5074572;28;20085;-14
2022/11/16 09:08:14;;;;;;;16.10;9.23;;;12.40;85.40;;;;;;5074694;28;20029;-14
2022/11/16 09:10:40;;;;;;;15.55;9.63;;;12.50;85.30;;;;;;5074598;28;20028;-13
2022/11/16 09:13:06;;;;;;;15.63;9.30;;;12.50;85.30;;;;;;5074323;28;20913;-13
2022/11/16 09:15:32;;;;;;;15.55;9.85;;;12.50;85.00;;;;;;5074436;28;20020;-14
2022/11/16 09:17:57;;;;;;;18.77;12.15;;;12.60;85.00;;;;;;5074050;28;20041;-15
2022/11/16 09:20:25;;;;;;;17.55;11.30;;;12.60;84.90;;;;;;5073257;28;20056;-14
2022/11/16 09:22:51;;;;;;;16.88;9.50;;;12.60;84.70;;;;;;5074121;28;20082;-16
2022/11/16 09:25:17;;;;;;;15.23;9.98;;;12.60;84.70;;;;;;5074441;28;20036;-15
2022/11/16 09:27:43;;;;;;;16.88;10.32;;;12.60;84.80;;;;;;5074168;28;20039;-15
2022/11/16 09:30:10;;;;;;;14.32;9.93;;;12.60;84.80;;;;;;5074133;28;20029;-15
2022/11/16 09:32:36;;;;;;;16.88;10.07;;;12.60;84.70;;;;;;5074270;28;20039;-14
2022/11/16 09:35:02;;;;;;;16.35;9.43;;;12.60;84.60;;;;;;5073872;28;20024;-15
2022/11/16 09:37:28;;;;;;;16.70;10.25;;;12.60;84.80;;;;;;5074015;28;20034;-14
2022/11/16 09:39:56;;;;;;;16.88;10.48;;;12.60;84.90;;;;;;5074157;28;20029;-13
2022/11/16 09:42:41;;;;;;;17.80;10.60;;;12.60;84.80;;;;;;5074456;28;20032;-16
2022/11/16 09:45:22;;;;;;;18.85;10.90;;;12.60;84.60;;;;;;5073637;28;20488;-16
2022/11/16 09:48:01;;;;;;;18.30;11.23;;;12.60;84.60;;;;;;5074182;28;20071;-16
2022/11/16 09:51:07;;;;;;;18.23;11.63;;;12.80;84.60;;;;;;5073910;28;20024;-16
2022/11/16 09:53:41;;;;;;;19.70;12.60;;;12.90;84.50;;;;;;5031890;28;20091;-16
2022/11/16 09:56:07;;;;;;;18.42;11.88;;;13.20;84.20;;;;;;5031755;28;20108;-15
2022/11/16 09:58:46;;;;;;;20.17;12.98;;;13.30;83.70;;;;;;5031838;28;20421;-15
2022/11/16 10:01:33;;;;;;;16.35;10.45;;;13.40;83.60;;;;;;5031590;28;20148;-13
2022/11/16 10:04:15;;;;;;;17.08;10.57;;;13.60;83.40;;;;;;5031848;28;20033;-13
2022/11/16 10:07:04;;;;;;;16.88;10.45;;;13.70;83.00;;;;;;5031497;28;20036;-13
2022/11/16 10:09:31;;;;;;;16.10;9.77;;;14.00;82.80;;;;;;5031534;28;20117;-14
2022/11/16 10:12:30;;;;;;;17.20;10.30;;;14.10;82.40;;;;;;5031444;28;20393;-14
2022/11/16 10:15:06;;;;;;;16.45;9.75;;;14.10;82.30;;;;;;5031293;28;20037;-15
2022/11/16 10:18:18;;;;;;;17.92;10.55;;;14.10;82.30;;;;;;5031375;28;20069;-14
2022/11/16 10:21:11;;;;;;;13.68;9.25;;;14.10;82.20;;;;;;5001146;28;20037;-14
2022/11/16 10:24:14;;;;;;;14.52;9.88;;;14.00;82.30;;;;;;5031755;28;20481;-14
2022/11/16 10:26:58;;;;;;;13.82;8.93;;;14.00;81.90;;;;;;5038681;28;20032;-14
2022/11/16 10:29:39;;;;;;;14.30;8.95;;;13.90;81.70;;;;;;5073123;28;20384;-16
2022/11/16 10:32:11;;;;;;;14.75;8.98;;;13.70;81.70;;;;;;5073213;28;20476;-16
2022/11/16 10:34:52;;;;;;;13.73;8.75;;;13.60;81.80;;;;;;5073543;28;20056;-16
2022/11/16 10:37:20;;;;;;;14.77;9.05;;;13.70;81.90;;;;;;5073528;28;20488;-14
2022/11/16 10:39:52;;;;;;;14.95;9.45;;;13.60;81.60;;;;;;5073564;28;20036;-14
2022/11/16 10:42:33;;;;;;;13.10;8.57;;;13.80;81.60;;;;;;5073096;28;20427;-14
2022/11/16 10:45:22;;;;;;;12.70;8.48;;;13.90;81.40;;;;;;5072900;28;20316;-14
2022/11/16 10:47:50;;;;;;;13.95;9.10;;;14.10;81.20;;;;;;5073443;28;20043;-14
2022/11/16 10:50:35;;;;;;;15.00;9.65;;;14.20;80.80;;;;;;5072899;28;20357;-14
2022/11/16 10:53:01;;;;;;;15.90;9.70;;;14.30;80.60;;;;;;5072828;28;20074;-15
2022/11/16 10:55:28;;;;;;;13.65;8.85;;;14.20;80.40;;;;;;5073245;28;20029;-14
2022/11/16 10:58:02;;;;;;;14.10;8.50;;;14.20;80.30;;;;;;5073213;28;20029;-14
2022/11/16 11:00:48;;;;;;;15.00;9.07;;;14.20;80.40;;;;;;5073134;28;20033;-14
2022/11/16 11:03:28;;;;;;;14.18;8.55;;;14.10;80.40;;;;;;5073228;28;20032;-14
2022/11/16 11:05:54;;;;;;;13.27;8.35;;;14.00;80.50;;;;;;5071706;28;20387;-15
2022/11/16 11:08:29;;;;;;;14.02;8.60;;;14.10;80.50;;;;;;5072816;28;20104;-14
2022/11/16 11:14:22;;;;;;;13.45;8.23;;;14.00;80.40;;;;;;5051542;28;20029;-15
2022/11/16 11:16:52;;;;;;;13.93;8.27;;;14.00;80.30;;;;;;5014081;28;20172;-16
2022/11/16 11:19:26;;;;;;;13.73;8.18;;;13.90;80.70;;;;;;5031076;28;20148;-14
2022/11/16 11:21:57;;;;;;;11.02;6.82;;;13.90;80.70;;;;;;5030468;28;20431;-14
2022/11/16 11:24:26;;;;;;;11.65;7.13;;;14.00;80.30;;;;;;5031005;28;20044;-14
2022/11/16 11:26:58;;;;;;;11.05;7.18;;;13.90;80.30;;;;;;5030563;28;20131;-14
2022/11/16 11:29:36;;;;;;;12.00;7.68;;;14.00;80.50;;;;;;5030560;28;20017;-16
2022/11/16 11:32:22;;;;;;;10.75;7.25;;;14.00;80.20;;;;;;5030558;28;20496;-14
2022/11/16 11:34:53;;;;;;;11.63;7.00;;;14.10;80.20;;;;;;5030357;28;20060;-14
2022/11/16 11:37:24;;;;;;;11.77;6.93;;;14.10;80.30;;;;;;5030137;28;20034;-15
2022/11/16 11:40:18;;;;;;;11.18;7.15;;;14.30;80.30;;;;;;5029871;28;20472;-14
2022/11/16 11:42:53;;;;;;;;;;;14.40;80.20;;;;;;5015856;28;20050;-14
2022/11/16 11:45:22;;;;;;;12.00;7.18;;;14.60;79.80;;;;;;5033765;28;20078;-14
2022/11/16 11:48:06;;;;;;;10.88;6.97;;;14.60;79.30;;;;;;5033685;28;20029;-14
2022/11/16 11:50:46;;;;;;;11.23;7.00;;;14.70;79.30;;;;;;5033794;28;20440;-16
2022/11/16 11:53:17;;;;;;;9.55;6.05;;;14.70;79.30;;;;;;5069036;28;20496;-15
2022/11/16 11:55:43;;;;;;;11.88;7.43;;;14.90;79.00;;;;;;5075805;28;20027;-15
2022/11/16 11:58:17;;;;;;;10.32;6.63;;;15.00;78.70;;;;;;5075391;28;20458;-15
2022/11/16 12:01:22;;;;;;;9.23;6.15;;;15.20;78.40;;;;;;5075830;28;20052;-16
2022/11/16 12:04:09;;;;;;;;;;;15.40;77.60;;;;;;5060050;28;20091;-15
2022/11/16 12:06:51;;;;;;;9.85;5.82;;;15.50;77.50;;;;;;5075352;28;19910;-15
2022/11/16 12:09:32;;;;;;;7.95;5.07;;;15.70;76.90;;;;;;5075117;28;20033;-16
2022/11/16 12:12:26;;;;;;;8.57;5.60;;;15.80;76.40;;;;;;5075444;28;20028;-15
2022/11/16 12:15:02;;;;;;;;;;;15.60;75.80;;;;;;5075627;28;20040;-15
2022/11/16 12:17:36;;;;;;;9.23;5.80;;;15.50;76.10;;;;;;5075255;28;20007;-16
2022/11/16 12:20:18;;;;;;;8.90;5.65;;;15.30;76.50;;;;;;5074739;28;20059;-16
2022/11/16 12:22:59;;;;;;;9.88;6.05;;;15.10;77.10;;;;;;5075473;28;20082;-16
2022/11/16 12:25:55;;;;;;;10.40;6.57;;;15.00;77.50;;;;;;5075087;28;20024;-16
2022/11/16 12:28:36;;;;;;;9.63;6.28;;;14.90;77.70;;;;;;5074663;28;20496;-15
2022/11/16 12:31:20;;;;;;;10.27;6.32;;;14.70;78.00;;;;;;5073440;28;20020;-16
2022/11/16 12:34:00;;;;;;;10.32;6.57;;;14.60;78.60;;;;;;5075515;28;20025;-15
2022/11/16 12:36:53;;;;;;;9.57;6.10;;;14.70;78.80;;;;;;5075119;28;20070;-16
2022/11/16 12:39:29;;;;;;;11.03;7.73;;;14.80;78.90;;;;;;5074798;28;20515;-15
2022/11/16 12:42:21;;;;;;;10.95;6.95;;;14.90;78.80;;;;;;5074777;28;20036;-16
2022/11/16 12:45:05;;;;;;;10.30;6.75;;;15.00;78.50;;;;;;5074862;28;20029;-17
2022/11/16 12:47:44;;;;;;;8.65;6.00;;;15.10;78.20;;;;;;5075194;28;20024;-16
2022/11/16 12:50:28;;;;;;;10.32;6.82;;;15.20;78.00;;;;;;5074820;28;20025;-16
2022/11/16 12:53:07;;;;;;;9.48;6.60;;;15.30;77.30;;;;;;5074459;28;20025;-16
2022/11/16 12:55:45;;;;;;;8.10;5.22;;;15.20;77.50;;;;;;5075015;28;20024;-15
2022/11/16 12:58:29;;;;;;;9.55;5.25;;;15.20;77.70;;;;;;5074759;28;20028;-16
2022/11/16 13:01:19;;;;;;;9.23;5.28;;;15.20;77.70;;;;;;5074091;28;20127;-15
2022/11/16 13:03:51;;;;;;;8.55;5.20;;;15.10;77.40;;;;;;5075246;28;20448;-15
2022/11/16 13:06:28;;;;;;;7.10;4.28;;;15.10;77.40;;;;;;5074862;28;20048;-16
2022/11/16 13:09:03;;;;;;;8.73;5.63;;;15.00;77.60;;;;;;5074462;28;20036;-15
2022/11/16 13:11:37;;;;;;;8.30;5.00;;;15.10;77.60;;;;;;5074918;28;20457;-15
2022/11/16 13:14:37;;;;;;;6.97;4.53;;;15.10;77.50;;;;;;5074885;28;20028;-15
2022/11/16 13:17:05;;;;;;;7.50;4.90;;;15.00;77.40;;;;;;5032486;28;20029;-16
2022/11/16 13:19:38;;;;;;;7.70;5.13;;;15.10;77.50;;;;;;5032027;28;20120;-16
2022/11/16 13:22:06;;;;;;;6.35;4.50;;;15.20;77.50;;;;;;5032322;28;20021;-16
2022/11/16 13:24:40;;;;;;;5.97;4.28;;;15.30;77.20;;;;;;5032557;28;20076;-15
2022/11/16 13:27:21;;;;;;;7.00;4.75;;;15.40;77.00;;;;;;5015708;28;20087;-16
2022/11/16 13:29:56;;;;;;;7.68;4.80;;;15.60;76.90;;;;;;5032506;28;20053;-15
2022/11/16 13:32:30;;;;;;;5.85;4.55;;;15.90;76.20;;;;;;5032184;28;20033;-15
2022/11/16 13:34:57;;;;;;;6.38;4.68;;;16.30;75.50;;;;;;5031904;28;20030;-16
2022/11/16 13:37:38;;;;;;;5.70;3.78;;;16.70;75.30;;;;;;5032130;28;20048;-16
2022/11/16 13:40:04;;;;;;;5.38;3.85;;;16.90;74.20;;;;;;5031973;28;20026;-15
2022/11/16 13:42:44;;;;;;;6.80;4.40;;;17.20;74.00;;;;;;5032198;28;20029;-15